Time;durP1;ratioP1;P1;durP2;ratioP2;P2;SDS_P1;SDS_P2;PMS_P1;PMS_P2;Temp;Humidity;BMP_temperature;BMP_pressure;BME280_temperature;BME280_humidity;BME280_pressure;Samples;Min_cycle;Max_cycle;Signal;HPM_P1;HPM_P2
2023/04/26 00:00:10;;;;;;;9.90;4.25;;;;;;;;;;5069787;27;98953;-74
2023/04/26 00:02:37;;;;;;;8.38;3.88;;;;;;;;;;5069501;27;98284;-75
2023/04/26 00:05:04;;;;;;;7.00;4.30;;;;;;;;;;5068847;27;98505;-75
2023/04/26 00:07:30;;;;;;;15.43;4.30;;;;;;;;;;5068111;27;99475;-75
2023/04/26 00:09:57;;;;;;;8.15;3.90;;;;;;;;;;5069318;27;98233;-75
2023/04/26 00:12:23;;;;;;;8.27;3.95;;;;;;;;;;5068696;27;98628;-75
2023/04/26 00:14:50;;;;;;;5.53;3.55;;;;;;;;;;5070127;27;100054;-76
2023/04/26 00:17:16;;;;;;;8.60;4.63;;;;;;;;;;5072179;27;98265;-75
2023/04/26 00:19:42;;;;;;;13.48;4.43;;;;;;;;;;5068541;27;99148;-74
2023/04/26 00:22:09;;;;;;;7.63;4.65;;;;;;;;;;5069728;27;99088;-74
2023/04/26 00:24:36;;;;;;;6.90;4.38;;;;;;;;;;5068553;27;98892;-73
2023/04/26 00:27:07;;;;;;;9.15;4.55;;;;;;;;;;5069640;27;99967;-74
2023/04/26 00:29:34;;;;;;;9.02;4.53;;;;;;;;;;5069760;27;98202;-74
2023/04/26 00:32:00;;;;;;;8.13;4.63;;;;;;;;;;5066157;27;98994;-75
2023/04/26 00:34:34;;;;;;;12.50;5.28;;;;;;;;;;5067726;27;99057;-74
2023/04/26 00:37:00;;;;;;;12.65;4.60;;;;;;;;;;5069903;27;98277;-75
2023/04/26 00:39:27;;;;;;;14.50;4.90;;;;;;;;;;5069794;27;98607;-75
2023/04/26 00:41:54;;;;;;;14.38;4.97;;;;;;;;;;5069395;27;98382;-73
2023/04/26 00:44:20;;;;;;;17.30;5.70;;;;;;;;;;5069374;27;98597;-75
2023/04/26 00:46:47;;;;;;;11.50;5.10;;;;;;;;;;5068660;27;98945;-74
2023/04/26 00:49:18;;;;;;;11.38;5.93;;;;;;;;;;5069872;27;99479;-74
2023/04/26 00:51:44;;;;;;;9.65;5.20;;;;;;;;;;5069495;27;99591;-75
2023/04/26 00:54:11;;;;;;;12.18;5.63;;;;;;;;;;5066185;27;100993;-75
2023/04/26 00:56:38;;;;;;;13.55;5.15;;;;;;;;;;5068269;27;98379;-74
2023/04/26 00:59:04;;;;;;;7.35;4.57;;;;;;;;;;5071396;27;99791;-75
2023/04/26 01:01:31;;;;;;;10.77;5.55;;;;;;;;;;5066417;27;100171;-74
2023/04/26 01:03:58;;;;;;;12.52;6.05;;;;;;;;;;5069583;27;98531;-74
2023/04/26 01:06:26;;;;;;;9.52;5.15;;;;;;;;;;5068449;27;98949;-75
2023/04/26 01:08:52;;;;;;;12.50;4.95;;;;;;;;;;5068575;27;98442;-75
2023/04/26 01:11:21;;;;;;;10.60;4.82;;;;;;;;;;5068583;27;98687;-76
2023/04/26 01:13:48;;;;;;;10.48;5.95;;;;;;;;;;5066977;27;101941;-75
2023/04/26 01:16:15;;;;;;;7.72;5.70;;;;;;;;;;5069001;27;98949;-74
2023/04/26 01:18:41;;;;;;;11.20;5.40;;;;;;;;;;5066891;27;98750;-74
2023/04/26 01:21:10;;;;;;;12.63;5.45;;;;;;;;;;5070936;27;98916;-74
2023/04/26 01:23:36;;;;;;;14.00;5.13;;;;;;;;;;5068279;27;98464;-74
2023/04/26 01:26:04;;;;;;;7.32;5.72;;;;;;;;;;5068977;27;98708;-73
2023/04/26 01:28:33;;;;;;;11.43;5.25;;;;;;;;;;5060384;27;98264;-75
2023/04/26 01:31:02;;;;;;;10.50;5.45;;;;;;;;;;5068632;27;99774;-74
2023/04/26 01:33:29;;;;;;;9.07;5.90;;;;;;;;;;5067762;27;98957;-74
2023/04/26 01:35:56;;;;;;;18.27;6.45;;;;;;;;;;5066135;27;99740;-74
2023/04/26 01:38:22;;;;;;;9.73;5.63;;;;;;;;;;5067226;27;99896;-75
2023/04/26 01:40:48;;;;;;;13.40;5.53;;;;;;;;;;5068349;27;98919;-75
2023/04/26 01:43:17;;;;;;;10.77;5.47;;;;;;;;;;5071269;27;99525;-75
2023/04/26 01:45:47;;;;;;;15.48;6.15;;;;;;;;;;5067428;27;100383;-74
2023/04/26 01:48:28;;;;;;;13.82;5.45;;;;;;;;;;5067895;27;98782;-73
2023/04/26 01:50:54;;;;;;;10.55;5.22;;;;;;;;;;5067859;27;99786;-75
2023/04/26 01:53:21;;;;;;;9.75;4.93;;;;;;;;;;5068025;27;99960;-74
2023/04/26 01:55:47;;;;;;;11.93;6.60;;;;;;;;;;5067981;27;98401;-74
2023/04/26 01:58:14;;;;;;;6.97;4.80;;;;;;;;;;5066280;27;99637;-74
2023/04/26 02:00:40;;;;;;;10.60;5.40;;;;;;;;;;5050407;27;100992;-74
2023/04/26 02:03:06;;;;;;;5.63;5.13;;;;;;;;;;5066430;27;99049;-74
2023/04/26 02:05:33;;;;;;;9.35;5.65;;;;;;;;;;5071089;27;98303;-74
2023/04/26 02:08:05;;;;;;;9.60;5.07;;;;;;;;;;5060774;27;99218;-74
2023/04/26 02:10:31;;;;;;;11.73;4.85;;;;;;;;;;5066465;27;98282;-74
2023/04/26 02:12:57;;;;;;;7.47;4.95;;;;;;;;;;5067867;27;99171;-75
2023/04/26 02:15:24;;;;;;;8.18;5.03;;;;;;;;;;5068521;27;98259;-75
2023/04/26 02:17:52;;;;;;;12.88;5.78;;;;;;;;;;5067586;27;98292;-74
2023/04/26 02:20:19;;;;;;;10.60;4.75;;;;;;;;;;5067678;27;98842;-74
2023/04/26 02:22:45;;;;;;;7.22;4.18;;;;;;;;;;5067887;27;98226;-75
2023/04/26 02:25:13;;;;;;;11.18;5.50;;;;;;;;;;5066820;27;98380;-73
2023/04/26 02:27:40;;;;;;;10.60;5.25;;;;;;;;;;5071554;27;100602;-74
2023/04/26 02:30:07;;;;;;;8.13;5.35;;;;;;;;;;5071255;27;98231;-74
2023/04/26 02:32:33;;;;;;;21.02;6.05;;;;;;;;;;5068293;27;100918;-73
2023/04/26 02:35:00;;;;;;;12.02;5.28;;;;;;;;;;5071073;27;99260;-74
2023/04/26 02:37:26;;;;;;;12.98;5.50;;;;;;;;;;5071610;27;99045;-74
2023/04/26 02:39:53;;;;;;;9.43;5.60;;;;;;;;;;5067870;27;101149;-75
2023/04/26 02:42:19;;;;;;;12.70;5.53;;;;;;;;;;5071561;27;98305;-74
2023/04/26 02:44:46;;;;;;;10.63;5.25;;;;;;;;;;5069922;27;99002;-75
2023/04/26 02:47:13;;;;;;;14.60;5.55;;;;;;;;;;5069207;27;98729;-73
2023/04/26 02:49:39;;;;;;;10.38;5.15;;;;;;;;;;5073306;27;98149;-75
2023/04/26 02:52:06;;;;;;;11.00;5.80;;;;;;;;;;5070821;27;99002;-74
2023/04/26 02:54:33;;;;;;;5.35;4.95;;;;;;;;;;5068338;27;98789;-75
2023/04/26 02:56:59;;;;;;;8.70;5.68;;;;;;;;;;5067813;27;100180;-72
2023/04/26 02:59:26;;;;;;;10.93;5.78;;;;;;;;;;5067040;27;101246;-73
2023/04/26 03:01:54;;;;;;;10.30;5.22;;;;;;;;;;5068370;27;98319;-75
2023/04/26 03:04:20;;;;;;;7.80;6.38;;;;;;;;;;5069667;27;100797;-74
2023/04/26 03:06:47;;;;;;;9.77;5.13;;;;;;;;;;5070494;27;98727;-73
2023/04/26 03:09:14;;;;;;;10.35;5.32;;;;;;;;;;5073370;27;98305;-74
2023/04/26 03:11:40;;;;;;;18.77;6.57;;;;;;;;;;5069414;27;99238;-73
2023/04/26 03:14:07;;;;;;;10.55;6.07;;;;;;;;;;5070456;27;98271;-73
2023/04/26 03:16:39;;;;;;;13.30;6.15;;;;;;;;;;5069702;27;99471;-74
2023/04/26 03:19:07;;;;;;;16.10;6.47;;;;;;;;;;5069436;27;100924;-74
2023/04/26 03:21:35;;;;;;;14.13;6.13;;;;;;;;;;5068729;27;98253;-74
2023/04/26 03:24:03;;;;;;;14.48;6.55;;;;;;;;;;5068640;27;100777;-75
2023/04/26 03:26:29;;;;;;;8.32;6.15;;;;;;;;;;5069395;27;100709;-74
2023/04/26 03:28:56;;;;;;;11.93;6.70;;;;;;;;;;5062332;27;98213;-74
2023/04/26 03:31:22;;;;;;;11.50;6.10;;;;;;;;;;5071938;27;99541;-73
2023/04/26 03:33:50;;;;;;;11.05;6.38;;;;;;;;;;5069219;27;98337;-74
2023/04/26 03:36:17;;;;;;;17.02;6.60;;;;;;;;;;5068142;27;99415;-74
2023/04/26 03:38:43;;;;;;;8.02;5.82;;;;;;;;;;5068919;27;102014;-74
2023/04/26 03:41:11;;;;;;;12.77;6.68;;;;;;;;;;5068601;27;98257;-74
2023/04/26 03:43:38;;;;;;;11.70;7.70;;;;;;;;;;5069961;27;98613;-74
2023/04/26 03:46:04;;;;;;;10.32;6.25;;;;;;;;;;5070370;27;98613;-73
2023/04/26 03:48:31;;;;;;;12.23;6.00;;;;;;;;;;5067346;27;98423;-75
2023/04/26 03:50:57;;;;;;;17.77;7.38;;;;;;;;;;5068435;27;99183;-74
2023/04/26 03:53:24;;;;;;;12.43;6.30;;;;;;;;;;5071817;27;101919;-75
2023/04/26 03:55:51;;;;;;;8.63;6.13;;;;;;;;;;5068345;27;101114;-74
2023/04/26 03:58:17;;;;;;;13.23;6.97;;;;;;;;;;5067910;27;101199;-74
2023/04/26 04:00:43;;;;;;;14.32;6.40;;;;;;;;;;5068796;27;98344;-74
2023/04/26 04:03:11;;;;;;;11.73;7.10;;;;;;;;;;5067820;27;101420;-74
2023/04/26 04:05:38;;;;;;;13.15;7.18;;;;;;;;;;5061298;27;101890;-74
2023/04/26 04:08:05;;;;;;;12.07;7.00;;;;;;;;;;5067983;27;98377;-75
2023/04/26 04:10:31;;;;;;;7.50;6.25;;;;;;;;;;5067817;27;98881;-75
2023/04/26 04:12:58;;;;;;;12.20;7.65;;;;;;;;;;5067622;27;101656;-75
2023/04/26 04:15:25;;;;;;;14.93;7.35;;;;;;;;;;5070779;27;98441;-75
2023/04/26 04:17:52;;;;;;;9.88;6.63;;;;;;;;;;5067931;27;98877;-74
2023/04/26 04:20:20;;;;;;;15.95;7.90;;;;;;;;;;5069426;27;98788;-74
2023/04/26 04:22:46;;;;;;;16.67;8.35;;;;;;;;;;5069864;27;98529;-74
2023/04/26 04:25:14;;;;;;;16.58;7.50;;;;;;;;;;5067327;27;101351;-74
2023/04/26 04:27:41;;;;;;;16.15;7.28;;;;;;;;;;5069626;27;98272;-74
2023/04/26 04:30:08;;;;;;;14.80;7.57;;;;;;;;;;5068795;27;99360;-74
2023/04/26 04:32:35;;;;;;;14.88;7.82;;;;;;;;;;5066870;27;99019;-74
2023/04/26 04:35:02;;;;;;;12.93;7.78;;;;;;;;;;5068464;27;98456;-75
2023/04/26 04:37:32;;;;;;;11.95;7.63;;;;;;;;;;5070153;27;100914;-74
2023/04/26 04:39:59;;;;;;;17.63;8.65;;;;;;;;;;5068830;27;98157;-74
2023/04/26 04:42:28;;;;;;;11.95;7.32;;;;;;;;;;5067649;27;98884;-73
2023/04/26 04:44:58;;;;;;;11.00;7.60;;;;;;;;;;5067186;27;99127;-71
2023/04/26 04:47:26;;;;;;;9.82;7.60;;;;;;;;;;5067753;27;98285;-73
2023/04/26 04:49:52;;;;;;;20.55;7.95;;;;;;;;;;5067899;27;98373;-74
2023/04/26 04:52:22;;;;;;;8.95;7.72;;;;;;;;;;5065505;27;99024;-74
2023/04/26 04:54:49;;;;;;;12.32;7.63;;;;;;;;;;5067937;27;98167;-75
2023/04/26 04:57:15;;;;;;;16.02;7.93;;;;;;;;;;5067099;27;98637;-73
2023/04/26 04:59:46;;;;;;;13.52;7.88;;;;;;;;;;5070384;27;98300;-74
2023/04/26 05:02:13;;;;;;;13.93;7.68;;;;;;;;;;5058966;27;99405;-73
2023/04/26 05:04:39;;;;;;;14.50;7.85;;;;;;;;;;5067364;27;99997;-74
2023/04/26 05:07:06;;;;;;;16.63;7.57;;;;;;;;;;5066960;27;98241;-74
2023/04/26 05:09:34;;;;;;;10.25;7.93;;;;;;;;;;5067442;27;101061;-74
2023/04/26 05:12:01;;;;;;;14.43;7.45;;;;;;;;;;5067601;27;98911;-73
2023/04/26 05:14:28;;;;;;;14.30;7.15;;;;;;;;;;5067641;27;98460;-73
2023/04/26 05:16:55;;;;;;;14.00;7.95;;;;;;;;;;5069304;27;98414;-74
2023/04/26 05:19:22;;;;;;;10.38;7.43;;;;;;;;;;5070551;27;100071;-73
2023/04/26 05:21:48;;;;;;;10.95;7.25;;;;;;;;;;5066896;27;98886;-75
2023/04/26 05:24:15;;;;;;;11.30;7.40;;;;;;;;;;5067039;27;101315;-75
2023/04/26 05:26:42;;;;;;;11.35;6.00;;;;;;;;;;5066164;27;98639;-74
2023/04/26 05:29:21;;;;;;;17.95;6.25;;;;;;;;;;5064590;27;101126;-73
2023/04/26 05:31:57;;;;;;;13.00;6.13;;;;;;;;;;5058893;27;98576;-74
2023/04/26 05:34:44;;;;;;;16.88;6.82;;;;;;;;;;5066594;27;98534;-74
2023/04/26 05:37:16;;;;;;;12.10;5.22;;;;;;;;;;5067422;27;102018;-74
2023/04/26 05:39:43;;;;;;;19.58;6.40;;;;;;;;;;5067493;27;101685;-75
2023/04/26 05:42:09;;;;;;;13.68;6.10;;;;;;;;;;5070742;27;98441;-76
2023/04/26 05:44:36;;;;;;;13.20;5.45;;;;;;;;;;5067724;27;100821;-74
2023/04/26 05:47:02;;;;;;;9.38;5.25;;;;;;;;;;5066627;27;98415;-74
2023/04/26 05:49:29;;;;;;;11.70;5.90;;;;;;;;;;5065836;27;100723;-71
2023/04/26 05:51:59;;;;;;;9.30;4.80;;;;;;;;;;5066497;27;101812;-72
2023/04/26 05:54:26;;;;;;;7.72;5.35;;;;;;;;;;5058252;27;98248;-74
2023/04/26 05:56:53;;;;;;;14.57;4.88;;;;;;;;;;5066331;27;100270;-75
2023/04/26 05:59:21;;;;;;;7.05;5.05;;;;;;;;;;5066512;27;99230;-75
2023/04/26 06:01:47;;;;;;;8.77;4.50;;;;;;;;;;5067779;27;98452;-75
2023/04/26 06:04:14;;;;;;;8.68;4.57;;;;;;;;;;5065736;27;100533;-74
2023/04/26 06:06:54;;;;;;;15.70;4.53;;;;;;;;;;5064971;27;98427;-75
2023/04/26 06:09:21;;;;;;;9.80;4.35;;;;;;;;;;5066159;27;98671;-75
2023/04/26 06:11:47;;;;;;;5.63;3.45;;;;;;;;;;5066559;27;100081;-74
2023/04/26 06:14:13;;;;;;;13.38;4.45;;;;;;;;;;5066809;27;98338;-74
2023/04/26 06:16:57;;;;;;;16.10;3.95;;;;;;;;;;5062566;27;100708;-75
2023/04/26 06:19:23;;;;;;;14.35;4.38;;;;;;;;;;5063562;27;99891;-73
2023/04/26 06:21:53;;;;;;;10.98;4.50;;;;;;;;;;5054660;27;99004;-74
2023/04/26 06:24:20;;;;;;;6.75;3.88;;;;;;;;;;5067299;27;98576;-74
2023/04/26 06:26:46;;;;;;;14.50;3.80;;;;;;;;;;5069362;27;100438;-75
2023/04/26 06:29:13;;;;;;;7.88;3.47;;;;;;;;;;5064928;27;100923;-74
2023/04/26 06:31:39;;;;;;;9.73;3.97;;;;;;;;;;5064986;27;99183;-74
2023/04/26 06:34:07;;;;;;;6.90;3.30;;;;;;;;;;5057358;27;98810;-74
2023/04/26 06:36:34;;;;;;;7.25;3.78;;;;;;;;;;5066361;27;100484;-73
2023/04/26 06:39:00;;;;;;;10.95;3.58;;;;;;;;;;5057990;27;101621;-74
2023/04/26 06:41:27;;;;;;;4.72;3.75;;;;;;;;;;5052042;27;99529;-74
2023/04/26 06:43:54;;;;;;;9.13;4.07;;;;;;;;;;5061304;27;101306;-74
2023/04/26 06:46:23;;;;;;;5.20;3.08;;;;;;;;;;5058683;27;101519;-75
2023/04/26 06:48:53;;;;;;;11.98;4.10;;;;;;;;;;5069119;27;98357;-74
2023/04/26 06:51:19;;;;;;;6.15;3.60;;;;;;;;;;5062081;27;99139;-74
2023/04/26 06:53:47;;;;;;;4.95;3.53;;;;;;;;;;5066811;27;98335;-74
2023/04/26 06:56:14;;;;;;;9.00;3.88;;;;;;;;;;5059371;27;99336;-74
2023/04/26 06:58:56;;;;;;;8.45;3.53;;;;;;;;;;5064072;27;100254;-74
2023/04/26 07:01:22;;;;;;;8.77;3.20;;;;;;;;;;5054086;27;100028;-75
2023/04/26 07:03:49;;;;;;;3.67;3.20;;;;;;;;;;5067468;27;99399;-74
2023/04/26 07:06:17;;;;;;;8.10;3.42;;;;;;;;;;5062669;27;98947;-77
2023/04/26 07:08:44;;;;;;;5.90;2.97;;;;;;;;;;5069176;27;99580;-73
2023/04/26 07:11:11;;;;;;;5.68;3.17;;;;;;;;;;5054969;27;100001;-73
2023/04/26 07:13:38;;;;;;;6.85;3.60;;;;;;;;;;5066161;27;98177;-74
2023/04/26 07:16:07;;;;;;;10.85;2.78;;;;;;;;;;5068232;27;99516;-73
2023/04/26 07:18:33;;;;;;;6.13;2.72;;;;;;;;;;5060358;27;98773;-74
2023/04/26 07:20:59;;;;;;;6.15;3.03;;;;;;;;;;5066477;27;98523;-74
2023/04/26 07:23:28;;;;;;;5.35;2.67;;;;;;;;;;5060555;27;99579;-73
2023/04/26 07:25:54;;;;;;;6.43;2.70;;;;;;;;;;5066308;27;99912;-74
2023/04/26 07:28:23;;;;;;;5.95;2.50;;;;;;;;;;5069549;27;98777;-75
2023/04/26 07:30:49;;;;;;;7.40;3.45;;;;;;;;;;5072584;27;98500;-74
2023/04/26 07:33:15;;;;;;;5.05;2.70;;;;;;;;;;5069784;27;98283;-75
2023/04/26 07:35:42;;;;;;;9.95;3.00;;;;;;;;;;5069362;27;98155;-74
2023/04/26 07:38:09;;;;;;;6.38;3.22;;;;;;;;;;5064932;27;103216;-74
2023/04/26 07:40:35;;;;;;;7.85;2.10;;;;;;;;;;5063790;27;98350;-74
2023/04/26 07:43:02;;;;;;;7.82;2.40;;;;;;;;;;5067999;27;98991;-75
2023/04/26 07:45:28;;;;;;;4.68;2.47;;;;;;;;;;5068098;27;100027;-75
2023/04/26 07:47:55;;;;;;;5.82;2.22;;;;;;;;;;5069625;27;98244;-75
2023/04/26 07:50:22;;;;;;;5.50;2.10;;;;;;;;;;5070104;27;99427;-75
2023/04/26 07:52:50;;;;;;;4.75;1.70;;;;;;;;;;5071964;27;99018;-74
2023/04/26 07:55:16;;;;;;;11.18;2.53;;;;;;;;;;5061174;27;99538;-74
2023/04/26 07:57:43;;;;;;;3.88;1.80;;;;;;;;;;5070529;27;100134;-74
2023/04/26 08:00:09;;;;;;;7.85;2.30;;;;;;;;;;5070076;27;98291;-75
2023/04/26 08:02:37;;;;;;;4.38;2.17;;;;;;;;;;5065711;27;100212;-75
2023/04/26 08:05:08;;;;;;;3.03;1.83;;;;;;;;;;5064948;27;100143;-74
2023/04/26 08:07:35;;;;;;;3.88;1.45;;;;;;;;;;5068716;27;98323;-75
2023/04/26 08:10:02;;;;;;;2.72;1.63;;;;;;;;;;5066991;27;99570;-75
2023/04/26 08:12:28;;;;;;;7.22;1.98;;;;;;;;;;5067964;27;99983;-74
2023/04/26 08:14:55;;;;;;;4.88;2.00;;;;;;;;;;5073335;27;98264;-73
2023/04/26 08:17:21;;;;;;;2.25;1.38;;;;;;;;;;5067353;27;99965;-74
2023/04/26 08:19:47;;;;;;;4.07;1.90;;;;;;;;;;5068047;27;98540;-74
2023/04/26 08:22:14;;;;;;;6.85;1.90;;;;;;;;;;5069548;27;98905;-75
2023/04/26 08:24:40;;;;;;;6.43;1.80;;;;;;;;;;5056644;27;99339;-75
2023/04/26 08:27:07;;;;;;;2.85;1.63;;;;;;;;;;5060741;27;99304;-74
2023/04/26 08:29:33;;;;;;;3.78;1.70;;;;;;;;;;5063860;27;99367;-73
2023/04/26 08:31:59;;;;;;;4.45;1.80;;;;;;;;;;5068506;27;99312;-74
2023/04/26 08:34:27;;;;;;;6.65;1.70;;;;;;;;;;5066196;27;98670;-74
2023/04/26 08:36:53;;;;;;;3.45;1.77;;;;;;;;;;5072386;27;99911;-75
2023/04/26 08:39:19;;;;;;;4.70;1.80;;;;;;;;;;5063322;27;98951;-75
2023/04/26 08:41:49;;;;;;;4.32;2.03;;;;;;;;;;5062492;27;98647;-75
2023/04/26 08:44:16;;;;;;;7.63;1.75;;;;;;;;;;5062666;27;100236;-75
2023/04/26 08:46:49;;;;;;;4.20;1.50;;;;;;;;;;5067638;27;98295;-74
2023/04/26 08:49:22;;;;;;;2.92;1.95;;;;;;;;;;5065427;27;98580;-76
2023/04/26 08:51:50;;;;;;;10.27;2.65;;;;;;;;;;5066882;27;99146;-75
2023/04/26 08:54:17;;;;;;;5.28;2.00;;;;;;;;;;5068906;27;98299;-75
2023/04/26 08:56:44;;;;;;;2.58;1.92;;;;;;;;;;5068946;27;99894;-74
2023/04/26 08:59:10;;;;;;;5.40;2.45;;;;;;;;;;5068708;27;99664;-76
2023/04/26 09:01:41;;;;;;;5.15;2.50;;;;;;;;;;5060698;27;100044;-75
2023/04/26 09:04:08;;;;;;;7.22;2.38;;;;;;;;;;5068095;27;99253;-75
2023/04/26 09:06:35;;;;;;;6.25;2.83;;;;;;;;;;5067653;27;98609;-74
2023/04/26 09:09:03;;;;;;;10.25;3.50;;;;;;;;;;5068131;27;99552;-76
2023/04/26 09:11:30;;;;;;;5.13;2.13;;;;;;;;;;5068494;27;100206;-74
2023/04/26 09:13:56;;;;;;;4.97;2.10;;;;;;;;;;5063157;27;99970;-74
2023/04/26 09:16:35;;;;;;;3.85;1.90;;;;;;;;;;5062216;27;99413;-74
2023/04/26 09:19:02;;;;;;;10.23;2.35;;;;;;;;;;5070534;27;99043;-78
2023/04/26 09:21:29;;;;;;;8.93;2.30;;;;;;;;;;5067919;27;99626;-75
2023/04/26 09:23:55;;;;;;;4.38;1.73;;;;;;;;;;5067119;27;99440;-75
2023/04/26 09:26:22;;;;;;;3.10;1.98;;;;;;;;;;5061050;27;98977;-75
2023/04/26 09:28:49;;;;;;;6.30;1.95;;;;;;;;;;5060906;27;98684;-75
2023/04/26 09:31:36;;;;;;;9.05;2.03;;;;;;;;;;5065834;27;100077;-74
2023/04/26 09:34:03;;;;;;;3.58;1.52;;;;;;;;;;5065940;27;98323;-74
2023/04/26 09:36:30;;;;;;;3.90;1.58;;;;;;;;;;5068428;27;99560;-74
2023/04/26 09:38:57;;;;;;;10.80;2.25;;;;;;;;;;5065796;27;101701;-76
2023/04/26 09:41:28;;;;;;;11.13;1.90;;;;;;;;;;5069524;27;99704;-72
2023/04/26 09:43:55;;;;;;;4.68;1.73;;;;;;;;;;5063967;27;99062;-76
2023/04/26 09:46:24;;;;;;;2.22;1.52;;;;;;;;;;5064367;27;99286;-73
2023/04/26 09:49:01;;;;;;;9.52;1.63;;;;;;;;;;5065492;27;99313;-74
2023/04/26 09:51:27;;;;;;;5.10;1.50;;;;;;;;;;5066163;27;99934;-75
2023/04/26 09:53:54;;;;;;;4.28;1.60;;;;;;;;;;5063425;27;98283;-74
2023/04/26 09:56:22;;;;;;;3.78;1.73;;;;;;;;;;5060616;27;98528;-75
2023/04/26 09:58:59;;;;;;;6.03;1.77;;;;;;;;;;5062647;27;102421;-74
2023/04/26 10:01:28;;;;;;;7.43;1.52;;;;;;;;;;5065744;27;98217;-73
2023/04/26 10:03:56;;;;;;;3.95;1.48;;;;;;;;;;5062794;27;99717;-72
2023/04/26 10:06:23;;;;;;;5.68;2.05;;;;;;;;;;5065124;27;100154;-74
2023/04/26 10:08:50;;;;;;;3.17;1.42;;;;;;;;;;5061950;27;99556;-74
2023/04/26 10:11:17;;;;;;;5.68;1.52;;;;;;;;;;5065148;27;101147;-75
2023/04/26 10:13:43;;;;;;;6.63;1.30;;;;;;;;;;5067765;27;98248;-74
2023/04/26 10:16:10;;;;;;;4.10;1.88;;;;;;;;;;5065905;27;99738;-73
2023/04/26 10:18:37;;;;;;;6.93;1.60;;;;;;;;;;5062236;27;99799;-74
2023/04/26 10:21:19;;;;;;;4.50;1.42;;;;;;;;;;5065781;27;98159;-74
2023/04/26 10:23:46;;;;;;;3.53;1.35;;;;;;;;;;5066352;27;99042;-74
2023/04/26 10:26:31;;;;;;;2.60;1.77;;;;;;;;;;5056990;27;99794;-72
2023/04/26 10:28:58;;;;;;;2.67;1.73;;;;;;;;;;5058505;27;98794;-73
2023/04/26 10:31:48;;;;;;;2.95;1.30;;;;;;;;;;5059010;27;98979;-73
2023/04/26 10:34:18;;;;;;;4.25;1.80;;;;;;;;;;5066604;27;98106;-75
2023/04/26 10:37:03;;;;;;;8.80;1.80;;;;;;;;;;5065230;27;98601;-73
2023/04/26 10:39:30;;;;;;;1.98;1.08;;;;;;;;;;5058343;27;100145;-75
2023/04/26 10:42:17;;;;;;;5.20;1.67;;;;;;;;;;5065185;27;98443;-76
2023/04/26 10:44:44;;;;;;;8.70;1.92;;;;;;;;;;5061413;27;99645;-74
2023/04/26 10:47:21;;;;;;;4.45;1.73;;;;;;;;;;5065864;27;99894;-74
2023/04/26 10:49:48;;;;;;;3.22;1.58;;;;;;;;;;5066850;27;98239;-73
2023/04/26 10:52:15;;;;;;;4.25;1.30;;;;;;;;;;5064555;27;100274;-74
2023/04/26 10:54:45;;;;;;;10.48;1.70;;;;;;;;;;5062280;27;99558;-73
2023/04/26 10:57:13;;;;;;;6.15;2.05;;;;;;;;;;5070754;27;99463;-74
2023/04/26 10:59:39;;;;;;;4.70;1.70;;;;;;;;;;5069855;27;99934;-74
2023/04/26 11:02:38;;;;;;;5.15;1.80;;;;;;;;;;5070265;27;98233;-75
2023/04/26 11:05:07;;;;;;;4.63;1.80;;;;;;;;;;5070250;27;99431;-74
2023/04/26 11:07:36;;;;;;;4.88;1.40;;;;;;;;;;5062441;27;99240;-75
2023/04/26 11:10:11;;;;;;;4.18;1.50;;;;;;;;;;5070280;27;99367;-74
2023/04/26 11:12:40;;;;;;;4.28;1.60;;;;;;;;;;5061658;27;100076;-75
2023/04/26 11:15:07;;;;;;;10.07;1.60;;;;;;;;;;5065028;27;98718;-74
2023/04/26 11:17:37;;;;;;;5.90;1.70;;;;;;;;;;5070432;27;99490;-75
2023/04/26 11:20:07;;;;;;;3.28;1.73;;;;;;;;;;5056982;27;99881;-75
2023/04/26 11:22:38;;;;;;;3.40;1.75;;;;;;;;;;5066441;27;98506;-74
2023/04/26 11:25:04;;;;;;;2.75;1.95;;;;;;;;;;5069800;27;100212;-74
2023/04/26 11:27:31;;;;;;;1.70;1.50;;;;;;;;;;5069380;27;99983;-75
2023/04/26 11:30:01;;;;;;;3.75;1.63;;;;;;;;;;5065716;27;98265;-75
2023/04/26 11:32:27;;;;;;;6.45;2.03;;;;;;;;;;5071585;27;98507;-75
2023/04/26 11:34:54;;;;;;;3.92;1.77;;;;;;;;;;5066364;27;98532;-73
2023/04/26 11:37:20;;;;;;;4.30;1.67;;;;;;;;;;5067399;27;99357;-74
2023/04/26 11:39:47;;;;;;;4.85;1.88;;;;;;;;;;5066667;27;100210;-76
2023/04/26 11:42:13;;;;;;;3.92;1.70;;;;;;;;;;5069612;27;98279;-74
2023/04/26 11:44:40;;;;;;;1.92;1.48;;;;;;;;;;5069439;27;100052;-75
2023/04/26 11:47:07;;;;;;;3.00;1.55;;;;;;;;;;5065253;27;99568;-74
2023/04/26 11:49:36;;;;;;;5.68;1.55;;;;;;;;;;5069212;27;98973;-75
2023/04/26 11:52:04;;;;;;;2.53;1.40;;;;;;;;;;5070526;27;99773;-77
2023/04/26 11:54:31;;;;;;;3.13;1.25;;;;;;;;;;5056689;27;98177;-79
2023/04/26 11:56:58;;;;;;;3.22;1.70;;;;;;;;;;5070352;27;99544;-76
2023/04/26 11:59:25;;;;;;;7.40;2.40;;;;;;;;;;5061053;27;100071;-77
2023/04/26 12:01:52;;;;;;;3.33;1.70;;;;;;;;;;5059865;27;98366;-77
2023/04/26 12:04:18;;;;;;;3.80;1.70;;;;;;;;;;5068926;27;99369;-75
2023/04/26 12:06:45;;;;;;;5.75;2.22;;;;;;;;;;5063945;27;99032;-78
2023/04/26 12:09:12;;;;;;;2.55;1.73;;;;;;;;;;5069066;27;98499;-77
2023/04/26 12:11:38;;;;;;;5.03;1.70;;;;;;;;;;5068856;27;98897;-76
2023/04/26 12:14:06;;;;;;;2.45;1.38;;;;;;;;;;5068421;27;98764;-77
2023/04/26 12:16:36;;;;;;;4.50;1.58;;;;;;;;;;5066425;27;100965;-77
2023/04/26 12:19:07;;;;;;;4.53;1.88;;;;;;;;;;5064176;27;100285;-77
2023/04/26 12:21:40;;;;;;;3.95;1.67;;;;;;;;;;5067349;27;98100;-76
2023/04/26 12:24:06;;;;;;;4.30;1.88;;;;;;;;;;5057605;27;98735;-78
2023/04/26 12:26:40;;;;;;;3.75;1.50;;;;;;;;;;5058316;27;100923;-78
2023/04/26 12:29:07;;;;;;;2.95;1.92;;;;;;;;;;5062612;27;98798;-76
2023/04/26 12:31:33;;;;;;;3.45;2.00;;;;;;;;;;5068551;27;99403;-77
2023/04/26 12:34:00;;;;;;;2.45;1.60;;;;;;;;;;5058184;27;101684;-77
2023/04/26 12:36:27;;;;;;;6.38;1.70;;;;;;;;;;5067940;27;99057;-77
2023/04/26 12:38:53;;;;;;;2.83;1.58;;;;;;;;;;5072377;27;99401;-77
2023/04/26 12:41:19;;;;;;;2.58;1.55;;;;;;;;;;5065573;27;98258;-77
2023/04/26 12:43:46;;;;;;;6.47;1.88;;;;;;;;;;5065728;27;100087;-77
2023/04/26 12:46:12;;;;;;;8.45;1.92;;;;;;;;;;5068602;27;99928;-78
2023/04/26 12:48:39;;;;;;;3.50;1.70;;;;;;;;;;5064949;27;98204;-79
2023/04/26 12:51:06;;;;;;;2.20;1.63;;;;;;;;;;5063229;27;99431;-77
2023/04/26 12:53:32;;;;;;;2.22;1.80;;;;;;;;;;5068822;27;99048;-77
2023/04/26 12:55:59;;;;;;;6.25;1.60;;;;;;;;;;5068916;27;98178;-78
2023/04/26 12:58:25;;;;;;;4.68;1.50;;;;;;;;;;5067312;27;98679;-77
2023/04/26 13:00:52;;;;;;;7.28;1.70;;;;;;;;;;5071121;27;99693;-78
2023/04/26 13:03:18;;;;;;;4.60;2.00;;;;;;;;;;5064716;27;99829;-78
2023/04/26 13:05:45;;;;;;;3.67;2.08;;;;;;;;;;5064682;27;99959;-76
2023/04/26 13:08:11;;;;;;;3.78;1.73;;;;;;;;;;5066317;27;98249;-77
2023/04/26 13:10:39;;;;;;;5.15;2.30;;;;;;;;;;5066385;27;99475;-77
2023/04/26 13:13:06;;;;;;;3.22;1.63;;;;;;;;;;5062736;27;100257;-75
2023/04/26 13:15:32;;;;;;;4.38;1.58;;;;;;;;;;5068788;27;98253;-77
2023/04/26 13:17:58;;;;;;;4.90;1.40;;;;;;;;;;5062402;27;98846;-77
2023/04/26 13:20:25;;;;;;;4.72;1.75;;;;;;;;;;5068886;27;100239;-76
2023/04/26 13:22:55;;;;;;;4.45;1.42;;;;;;;;;;5069337;27;98442;-76
2023/04/26 13:25:22;;;;;;;3.92;1.52;;;;;;;;;;5068132;27;99788;-78
2023/04/26 13:27:50;;;;;;;2.10;1.52;;;;;;;;;;5078902;27;98104;-75
2023/04/26 13:30:17;;;;;;;4.25;1.92;;;;;;;;;;5066687;27;99964;-75
2023/04/26 13:32:43;;;;;;;6.10;1.75;;;;;;;;;;5066343;27;100089;-76
2023/04/26 13:35:10;;;;;;;3.67;1.60;;;;;;;;;;5066790;27;98321;-77
2023/04/26 13:37:37;;;;;;;1.98;1.48;;;;;;;;;;5067419;27;99483;-77
2023/04/26 13:40:04;;;;;;;5.15;3.40;;;;;;;;;;5059530;27;98964;-77
2023/04/26 13:42:31;;;;;;;7.47;1.80;;;;;;;;;;5063389;27;98496;-77
2023/04/26 13:44:58;;;;;;;3.35;2.58;;;;;;;;;;5062247;27;100201;-77
2023/04/26 13:47:24;;;;;;;7.50;2.00;;;;;;;;;;5058448;27;99333;-77
2023/04/26 13:49:51;;;;;;;3.83;1.63;;;;;;;;;;5064287;27;100269;-78
2023/04/26 13:52:17;;;;;;;3.78;1.80;;;;;;;;;;5067873;27;100123;-77
2023/04/26 13:54:44;;;;;;;6.68;1.83;;;;;;;;;;5064170;27;98049;-77
2023/04/26 13:57:11;;;;;;;4.07;1.85;;;;;;;;;;5067489;27;98414;-77
2023/04/26 13:59:39;;;;;;;4.63;1.50;;;;;;;;;;5066558;27;99904;-77
2023/04/26 14:02:05;;;;;;;4.82;1.67;;;;;;;;;;5065503;27;99047;-76
2023/04/26 14:04:32;;;;;;;3.63;1.85;;;;;;;;;;5069891;27;99622;-76
2023/04/26 14:06:58;;;;;;;4.57;1.58;;;;;;;;;;5062195;27;98771;-76
2023/04/26 14:09:25;;;;;;;2.30;1.55;;;;;;;;;;5061321;27;99603;-76
2023/04/26 14:11:51;;;;;;;4.95;1.35;;;;;;;;;;5065811;27;100192;-76
2023/04/26 14:14:33;;;;;;;3.05;1.75;;;;;;;;;;5059211;27;98176;-75
2023/04/26 14:16:59;;;;;;;3.97;1.58;;;;;;;;;;5067701;27;98607;-76
2023/04/26 14:19:26;;;;;;;4.03;2.03;;;;;;;;;;5065341;27;98876;-76
2023/04/26 14:21:52;;;;;;;3.08;1.52;;;;;;;;;;5066658;27;99247;-76
2023/04/26 14:24:18;;;;;;;6.05;1.48;;;;;;;;;;5067964;27;99557;-76
2023/04/26 14:26:45;;;;;;;2.70;1.52;;;;;;;;;;5071219;27;99164;-76
2023/04/26 14:29:11;;;;;;;5.40;1.70;;;;;;;;;;5069818;27;98636;-76
2023/04/26 14:31:38;;;;;;;5.07;1.50;;;;;;;;;;5070469;27;99946;-77
2023/04/26 14:34:04;;;;;;;4.70;1.45;;;;;;;;;;5071259;27;98256;-75
2023/04/26 14:36:32;;;;;;;2.95;1.58;;;;;;;;;;5069752;27;98701;-76
2023/04/26 14:38:58;;;;;;;2.47;1.98;;;;;;;;;;5071226;27;100271;-77